Seymour, TN

6:17 PM EDT on July 07, 2015 (GMT -0400)
Shenandoah | | Change Station
CLOSE
Current Station
Personal Weather Station
Location: Seymour, TN
Elevation: 1076 ft
Nearby Weather Stations

Elev 1076 ft 35.86 °N, 83.77 °W | Updated 1 second ago

Partly Cloudy
Partly Cloudy
87.1 °F
Feels Like 98 °F
N
5.4
Wind Variable Wind from North
Gusts 6.0 mph

Today
High -- | Low -- °F
--% Chance of Precip.
Yesterday
High -- | Low -- °F
Precip. -- in
6:25 AM 8:54 PM
Waning Gibbous, 61% visible
Pressure 30.04 in
Visibility 10.0 miles
Clouds Few 4500 ft
Scattered Clouds 15000 ft
Mostly Cloudy 25000 ft
Heat Index 98 °F
Dew Point 77 °F
Humidity 71%
Rainfall 0.00 in
Snow Depth Not available.
UV 2 out of 12
Pollen 3.50 out of 12
Air Quality Not available.
Flu Activity Not available.
METAR KTYS 072153Z 21013KT 10SM FEW045 SCT150 BKN250 31/20 A3007 RMK AO2 SLP170 T03110200 $

More Conditions Fewer Conditions

Pressure 30.04 in
Visibility 10.0 miles
Clouds Few 4500 ft
Scattered Clouds 15000 ft
Mostly Cloudy 25000 ft
Heat Index 98 °F
Dew Point 77 °F
Humidity 71%
Rainfall 0.00 in
Snow Depth Not available.
UV 2 out of 12
Pollen 3.50 out of 12
Air Quality Not available.
Flu Activity Not available.
METAR KTYS 072153Z 21013KT 10SM FEW045 SCT150 BKN250 31/20 A3007 RMK AO2 SLP170 T03110200 $

More Conditions Fewer Conditions

10-Day Weather Forecast

×

Almanac

Astronomy

Jul. 07, 2015 Rise Set
Actual Time
Civil Twilight
Nautical Twilight
Astronomical Twilight
Moon
Length of Visible Light
Length of Day
Tomorrow will be .
, % of the Moon is Illuminated

Today's Extremes

State Highs State Lows

Community

WunderPhotos

Upload Photos

1,835,939 photos uploaded!

WunderBlogs® & News

Nearby

Air Quality

  Air Quality AQ Index Pollutant
Not available.

Snow Depth

Station Depth Elevation

Earthquake Activity

City Distance Mag. Time & Date
Minimum magnitude displayed is 2.5.

Coastal Water Temperatures

Place Temperature

Stations

Nearby Weather Stations

Station Location Temp. Windchill Dew Point Humidity Wind Precip. Elev Updated Type